Time;durP1;ratioP1;P1;durP2;ratioP2;P2;SDS_P1;SDS_P2;PMS_P1;PMS_P2;Temp;Humidity;BMP_temperature;BMP_pressure;BME280_temperature;BME280_humidity;BME280_pressure;Samples;Min_cycle;Max_cycle;Signal;HPM_P1;HPM_P2
2023/07/11 00:00:38;;;;;;;;;;;17.10;99.90;;;;;;5005854;28;19987;-88
2023/07/11 00:03:10;;;;;;;;;;;17.00;99.90;;;;;;5012521;28;19939;-88
2023/07/11 00:05:36;;;;;;;;;;;17.50;99.90;;;;;;5027036;28;19933;-88
2023/07/11 00:08:01;;;;;;;;;;;17.10;99.90;;;;;;5029132;28;19929;-88
2023/07/11 00:10:27;;;;;;;;;;;17.00;99.90;;;;;;5027831;28;19933;-87
2023/07/11 00:12:56;;;;;;;;;;;17.00;99.90;;;;;;5028042;28;19932;-88
2023/07/11 00:15:24;;;;;;;;;;;17.00;99.90;;;;;;4998666;28;19928;-88
2023/07/11 00:17:50;;;;;;;;;;;17.00;99.90;;;;;;5019986;28;19933;-88
2023/07/11 00:20:16;;;;;;;;;;;17.00;99.90;;;;;;4992733;28;19931;-88
2023/07/11 00:22:42;;;;;;;;;;;17.00;99.90;;;;;;4994280;28;19925;-88
2023/07/11 00:25:09;;;;;;;;;;;17.40;99.90;;;;;;4995111;28;19940;-88
2023/07/11 00:27:52;;;;;;;;;;;17.10;99.90;;;;;;5018502;28;20381;-88
2023/07/11 00:30:18;;;;;;;;;;;17.10;99.90;;;;;;5027265;28;19928;-87
2023/07/11 00:32:44;;;;;;;;;;;17.10;99.90;;;;;;5028679;28;20450;-88
2023/07/11 00:35:15;;;;;;;;;;;17.00;99.90;;;;;;5008613;28;19965;-88
2023/07/11 00:37:41;;;;;;;;;;;17.00;99.90;;;;;;5021044;28;19929;-87
2023/07/11 00:40:07;;;;;;;;;;;17.00;99.90;;;;;;5006992;28;19930;-87
2023/07/11 00:42:41;;;;;;;;;;;16.90;99.90;;;;;;5008193;28;19929;-87
2023/07/11 00:45:45;;;;;;;;;;;16.90;99.90;;;;;;4992135;28;19925;-87
2023/07/11 00:48:11;;;;;;;;;;;16.90;99.90;;;;;;4978947;28;19925;-87
2023/07/11 00:50:38;;;;;;;;;;;16.90;99.90;;;;;;4991799;28;19929;-87
2023/07/11 00:53:04;;;;;;;;;;;16.90;99.90;;;;;;4992128;28;19948;-88
2023/07/11 00:55:30;;;;;;;;;;;16.90;99.90;;;;;;5021102;28;20431;-87
2023/07/11 00:57:55;;;;;;;;;;;16.80;99.90;;;;;;4996149;28;19921;-88
2023/07/11 01:00:21;;;;;;;;;;;16.90;99.90;;;;;;5008589;28;19933;-88
2023/07/11 01:02:47;;;;;;;;;;;16.90;99.90;;;;;;5007981;28;19961;-87
2023/07/11 01:05:12;;;;;;;;;;;16.90;99.90;;;;;;4986139;28;20352;-87
2023/07/11 01:07:38;;;;;;;;;;;16.90;99.90;;;;;;4991185;28;19987;-87
2023/07/11 01:10:04;;;;;;;;;;;16.90;99.90;;;;;;5004735;28;20274;-87
2023/07/11 01:12:30;;;;;;;;;;;16.90;99.90;;;;;;4978367;28;19932;-87
2023/07/11 01:14:56;;;;;;;;;;;16.80;99.90;;;;;;5014493;28;19925;-88
2023/07/11 01:17:32;;;;;;;;;;;16.80;99.90;;;;;;5001306;28;19929;-88
2023/07/11 01:19:59;;;;;;;;;;;16.80;99.90;;;;;;5010210;28;19933;-87
2023/07/11 01:22:25;;;;;;;;;;;16.70;99.90;;;;;;5019544;28;19936;-87
2023/07/11 01:24:51;;;;;;;;;;;16.70;99.90;;;;;;4989100;28;20393;-88
2023/07/11 01:27:19;;;;;;;;;;;16.70;99.90;;;;;;5010929;28;19925;-87
2023/07/11 01:29:46;;;;;;;;;;;16.70;99.90;;;;;;5025618;28;19960;-87
2023/07/11 01:32:12;;;;;;;;;;;16.70;99.90;;;;;;5001526;28;19945;-87
2023/07/11 01:34:37;;;;;;;;;;;16.70;99.90;;;;;;5017987;28;19934;-87
2023/07/11 01:37:12;;;;;;;;;;;16.80;99.90;;;;;;5001586;28;19925;-88
2023/07/11 01:39:41;;;;;;;;;;;16.90;99.90;;;;;;5009133;28;20052;-87
2023/07/11 01:42:09;;;;;;;;;;;16.90;99.90;;;;;;5016409;28;20404;-87
2023/07/11 01:44:41;;;;;;;;;;;16.90;99.90;;;;;;5010976;28;19992;-87
2023/07/11 01:47:07;;;;;;;;;;;17.00;99.90;;;;;;5016272;28;20012;-88
2023/07/11 01:49:33;;;;;;;;;;;17.00;99.90;;;;;;5008072;28;19929;-87
2023/07/11 01:52:04;;;;;;;;;;;17.10;99.90;;;;;;4999004;28;19932;-87
2023/07/11 01:54:29;;;;;;;;;;;17.10;99.90;;;;;;4990486;28;19929;-87
2023/07/11 01:56:55;;;;;;;;;;;17.10;99.90;;;;;;5007607;28;19926;-87
2023/07/11 01:59:21;;;;;;;;;;;17.20;99.90;;;;;;5008619;28;19929;-87
2023/07/11 02:01:46;;;;;;;;;;;17.20;99.90;;;;;;4991061;28;20377;-87
2023/07/11 02:04:12;;;;;;;;;;;17.20;99.90;;;;;;5027795;28;20395;-88
2023/07/11 02:06:38;;;;;;;;;;;17.20;99.90;;;;;;4996940;28;19925;-86
2023/07/11 02:09:12;;;;;;;;;;;17.20;99.90;;;;;;5009617;28;19975;-87
2023/07/11 02:11:43;;;;;;;;;;;17.20;99.90;;;;;;4996406;28;19929;-87
2023/07/11 02:14:09;;;;;;;;;;;17.10;99.90;;;;;;5001828;28;20296;-87
2023/07/11 02:16:38;;;;;;;;;;;17.10;99.90;;;;;;5008690;28;19929;-87
2023/07/11 02:19:04;;;;;;;;;;;17.00;99.90;;;;;;5002419;28;19929;-87
2023/07/11 02:21:29;;;;;;;;;;;17.00;99.90;;;;;;5016126;28;19948;-87
2023/07/11 02:23:58;;;;;;;;;;;16.90;99.90;;;;;;5030303;28;19971;-87
2023/07/11 02:26:25;;;;;;;;;;;16.80;99.90;;;;;;5016840;28;19932;-87
2023/07/11 02:28:57;;;;;;;;;;;16.80;99.90;;;;;;5022247;28;19934;-87
2023/07/11 02:31:25;;;;;;;;;;;16.70;99.90;;;;;;5025082;28;19928;-87
2023/07/11 02:33:56;;;;;;;;;;;16.70;99.90;;;;;;5029504;28;19929;-88
2023/07/11 02:36:22;;;;;;;;;;;16.70;99.90;;;;;;5029195;28;19932;-87
2023/07/11 02:38:57;;;;;;;;;;;16.60;99.90;;;;;;5030064;28;19987;-87
2023/07/11 02:41:23;;;;;;;;;;;16.60;99.90;;;;;;5026995;28;20282;-88
2023/07/11 02:43:48;;;;;;;;;;;16.50;99.90;;;;;;5009453;28;19980;-87
2023/07/11 02:46:14;;;;;;;;;;;16.50;99.90;;;;;;5008369;28;20282;-87
2023/07/11 02:48:43;;;;;;;;;;;16.40;99.90;;;;;;5010526;28;19929;-87
2023/07/11 02:51:10;;;;;;;;;;;16.40;99.90;;;;;;5011589;28;19948;-88
2023/07/11 02:53:41;;;;;;;;;;;16.50;99.90;;;;;;5010763;28;19980;-88
2023/07/11 02:56:09;;;;;;;;;;;16.50;99.90;;;;;;4994048;28;19932;-88
2023/07/11 02:58:41;;;;;;;;;;;16.40;99.90;;;;;;4994830;28;19979;-88
2023/07/11 03:01:07;;;;;;;;;;;16.50;99.90;;;;;;5004130;28;19925;-88
2023/07/11 03:03:35;;;;;;;;;;;16.40;99.90;;;;;;5016438;28;20404;-87
2023/07/11 03:06:00;;;;;;;;;;;16.50;99.90;;;;;;4994043;28;19932;-88
2023/07/11 03:08:45;;;;;;;;;;;16.50;99.90;;;;;;4993547;28;19925;-88
2023/07/11 03:11:17;;;;;;;;;;;16.50;99.90;;;;;;4985020;28;20400;-88
2023/07/11 03:13:45;;;;;;;;;;;16.50;99.90;;;;;;4991481;28;19929;-88
2023/07/11 03:16:11;;;;;;;;;;;16.50;99.90;;;;;;5009929;28;19925;-88
2023/07/11 03:18:37;;;;;;;;;;;16.50;99.90;;;;;;5011987;28;19963;-87
2023/07/11 03:21:03;;;;;;;;;;;16.50;99.90;;;;;;5002275;28;19925;-87
2023/07/11 03:23:54;;;;;;;;;;;16.50;99.90;;;;;;4999620;28;19991;-87
2023/07/11 03:26:20;;;;;;;;;;;16.50;99.90;;;;;;5010312;28;20349;-87
2023/07/11 03:28:45;;;;;;;;;;;16.50;99.90;;;;;;5011618;28;19968;-88
2023/07/11 03:31:11;;;;;;;;;;;16.50;99.90;;;;;;5012466;28;20447;-88
2023/07/11 03:33:39;;;;;;;;;;;16.40;99.90;;;;;;5010252;28;19925;-87
2023/07/11 03:36:17;;;;;;;;;;;16.40;99.90;;;;;;4994254;28;19995;-88
2023/07/11 03:38:57;;;;;;;;;;;16.80;99.90;;;;;;5011913;28;19926;-89
2023/07/11 03:41:36;;;;;;;;;;;16.40;99.90;;;;;;5009725;28;20401;-88
2023/07/11 03:44:02;;;;;;;;;;;16.40;99.90;;;;;;4998445;28;20012;-88
2023/07/11 03:46:27;;;;;;;;;;;16.40;99.90;;;;;;5005491;28;19926;-88
2023/07/11 03:49:02;;;;;;;;;;;16.40;99.90;;;;;;5015154;28;20450;-88
2023/07/11 03:51:34;;;;;;;;;;;16.40;99.90;;;;;;4996370;28;19926;-88
2023/07/11 03:54:00;;;;;;;;;;;16.40;99.90;;;;;;5010300;28;19930;-88
2023/07/11 03:56:27;;;;;;;;;;;16.50;99.90;;;;;;4987314;28;19933;-86
2023/07/11 03:58:53;;;;;;;;;;;16.50;99.90;;;;;;4992185;28;19926;-88
2023/07/11 04:01:25;;;;;;;;;;;16.40;99.90;;;;;;5010596;28;19976;-86
2023/07/11 04:03:56;;;;;;;;;;;16.50;99.90;;;;;;5013149;28;19976;-87
2023/07/11 04:06:25;;;;;;;;;;;16.40;99.90;;;;;;5028314;28;20285;-88
2023/07/11 04:09:00;;;;;;;;;;;16.50;99.90;;;;;;5012890;28;19929;-88
2023/07/11 04:11:35;;;;;;;;;;;16.50;99.90;;;;;;5027958;28;19925;-88
2023/07/11 04:14:00;;;;;;;;;;;16.60;99.90;;;;;;5024477;28;20373;-88
2023/07/11 04:16:26;;;;;;;;;;;16.70;99.90;;;;;;4993562;28;19936;-88
2023/07/11 04:18:51;;;;;;;;;;;16.70;99.90;;;;;;5009837;28;20343;-88
2023/07/11 04:21:42;;;;;;;;;;;16.80;99.90;;;;;;5016570;28;19925;-88
2023/07/11 04:24:08;;;;;;;;;;;16.90;99.90;;;;;;5001046;28;19927;-88
2023/07/11 04:26:33;;;;;;;;;;;16.90;99.90;;;;;;4991567;28;19926;-88
2023/07/11 04:28:59;;;;;;;;;;;17.00;99.90;;;;;;5010544;28;19972;-87
2023/07/11 04:31:25;;;;;;;;;;;17.00;99.90;;;;;;5014615;28;20381;-87
2023/07/11 04:33:52;;;;;;;;;;;17.10;99.90;;;;;;5025911;28;20391;-87
2023/07/11 04:36:18;;;;;;;;;;;17.10;99.90;;;;;;5025740;28;20004;-88
2023/07/11 04:38:44;;;;;;;;;;;17.20;99.90;;;;;;5009844;28;20025;-88
2023/07/11 04:41:10;;;;;;;;;;;17.20;99.90;;;;;;4992565;28;20020;-88
2023/07/11 04:43:36;;;;;;;;;;;17.30;99.90;;;;;;5009570;28;20365;-87
2023/07/11 04:46:03;;;;;;;;;;;17.30;99.90;;;;;;4992469;28;19976;-88
2023/07/11 04:48:28;;;;;;;;;;;17.30;99.90;;;;;;5004648;28;20007;-88
2023/07/11 04:50:55;;;;;;;;;;;17.40;99.90;;;;;;5010343;28;20362;-87
2023/07/11 04:53:42;;;;;;;;;;;17.40;99.90;;;;;;4995137;28;19926;-88
2023/07/11 04:56:10;;;;;;;;;;;17.40;99.90;;;;;;5003823;28;19934;-88
2023/07/11 04:58:36;;;;;;;;;;;17.40;99.90;;;;;;5006709;28;19930;-88
2023/07/11 05:01:12;;;;;;;;;;;17.40;99.90;;;;;;4992321;28;19925;-87
2023/07/11 05:03:38;;;;;;;;;;;17.40;99.90;;;;;;4992517;28;19936;-89
2023/07/11 05:06:05;;;;;;;;;;;17.40;99.90;;;;;;4987995;28;20230;-92
2023/07/11 05:08:31;;;;;;;;;;;17.40;99.90;;;;;;4996566;28;19951;-91
2023/07/11 05:11:01;;;;;;;;;;;17.40;99.90;;;;;;4993248;28;19929;-93
2023/07/11 05:13:27;;;;;;;;;;;17.40;99.90;;;;;;5012489;28;19933;-94
2023/07/11 05:15:58;;;;;;;;;;;17.50;99.90;;;;;;4995156;28;19929;-93
2023/07/11 05:18:26;;;;;;;;;;;17.60;99.90;;;;;;5007188;28;20376;-92
2023/07/11 05:20:54;;;;;;;;;;;17.70;99.90;;;;;;5003224;28;19926;-91
2023/07/11 05:23:21;;;;;;;;;;;17.80;99.90;;;;;;4990220;28;19980;-93
2023/07/11 05:25:46;;;;;;;;;;;17.90;99.90;;;;;;4992461;28;19940;-93
2023/07/11 05:28:16;;;;;;;;;;;18.00;99.90;;;;;;4991243;28;19925;-93
2023/07/11 05:30:53;;;;;;;;;;;18.10;99.90;;;;;;4992056;28;19936;-93
2023/07/11 05:33:20;;;;;;;;;;;18.30;99.90;;;;;;5010350;28;19933;-94
2023/07/11 05:38:33;;;;;;;;;;;18.80;99.90;;;;;;5002977;28;19925;-88
2023/07/11 05:40:59;;;;;;;;;;;18.90;99.90;;;;;;4977564;28;19956;-89
2023/07/11 05:43:51;;;;;;;;;;;18.90;99.90;;;;;;4983194;28;19925;-87
2023/07/11 05:46:17;;;;;;;;;;;19.10;99.90;;;;;;4992853;28;19926;-88
2023/07/11 05:48:48;;;;;;;;;;;19.10;99.90;;;;;;4970590;28;19930;-87
2023/07/11 05:51:15;;;;;;;;;;;19.10;99.90;;;;;;4975000;28;19952;-87
2023/07/11 05:53:50;;;;;;;;;;;19.10;99.90;;;;;;4978370;28;19933;-88
2023/07/11 05:56:28;;;;;;;;;;;19.30;99.90;;;;;;4973398;28;20036;-88
2023/07/11 05:58:54;;;;;;;;;;;19.30;99.90;;;;;;5003667;28;20397;-86
2023/07/11 06:01:21;;;;;;;;;;;19.50;99.90;;;;;;5027874;28;20452;-87
2023/07/11 06:03:51;;;;;;;;;;;19.50;99.90;;;;;;5013617;28;19929;-88
2023/07/11 06:06:18;;;;;;;;;;;19.50;99.90;;;;;;4999690;28;19932;-88
2023/07/11 06:08:44;;;;;;;;;;;19.50;99.90;;;;;;4989490;28;19929;-87
2023/07/11 06:11:10;;;;;;;;;;;19.50;99.90;;;;;;4990664;28;19948;-89
2023/07/11 06:13:39;;;;;;;;;;;19.60;99.90;;;;;;5024040;28;20472;-88
2023/07/11 06:16:07;;;;;;;;;;;19.70;99.90;;;;;;4979042;28;19938;-89
2023/07/11 06:18:44;;;;;;;;;;;19.70;99.90;;;;;;5006595;28;19952;-87
2023/07/11 06:21:10;;;;;;;;;;;19.70;99.90;;;;;;5011814;28;20404;-87
2023/07/11 06:23:40;;;;;;;;;;;19.70;99.90;;;;;;4994165;28;19930;-87
2023/07/11 06:26:07;;;;;;;;;;;19.70;99.90;;;;;;5010236;28;20401;-87
2023/07/11 06:28:35;;;;;;;;;;;19.80;99.90;;;;;;5008318;28;19926;-87
2023/07/11 06:31:01;;;;;;;;;;;19.90;99.90;;;;;;4987822;28;19925;-87
2023/07/11 06:33:33;;;;;;;;;;;20.10;99.90;;;;;;5011298;28;20401;-87
2023/07/11 06:35:58;;;;;;;;;;;20.20;99.90;;;;;;5009947;28;19925;-87
2023/07/11 06:38:24;;;;;;;;;;;20.50;99.90;;;;;;5019544;28;19929;-87
2023/07/11 06:40:50;;;;;;;;;;;20.60;99.90;;;;;;4997066;28;20077;-87
2023/07/11 06:43:16;;;;;;;;;;;20.90;99.90;;;;;;4998981;28;19961;-87
2023/07/11 06:45:44;;;;;;;;;;;21.00;99.90;;;;;;5009485;28;20092;-87
2023/07/11 06:48:10;;;;;;;;;;;21.20;99.90;;;;;;4993007;28;19928;-87
2023/07/11 06:50:35;;;;;;;;;;;21.30;99.90;;;;;;4992442;28;20297;-88
2023/07/11 06:53:01;;;;;;;;;;;21.40;99.90;;;;;;5007104;28;19930;-86
2023/07/11 06:55:27;;;;;;;;;;;21.50;99.90;;;;;;5002882;28;19930;-88
2023/07/11 06:57:52;;;;;;;;;;;21.60;99.90;;;;;;5009452;28;20026;-87
2023/07/11 07:00:18;;;;;;;;;;;21.70;99.90;;;;;;4991796;28;20309;-88
2023/07/11 07:02:44;;;;;;;;;;;21.80;99.90;;;;;;4991688;28;19940;-88
2023/07/11 07:05:10;;;;;;;;;;;21.90;99.90;;;;;;4991813;28;19926;-87
2023/07/11 07:07:35;;;;;;;;;;;21.90;99.90;;;;;;5008227;28;19972;-90
2023/07/11 07:10:01;;;;;;;;;;;22.00;99.90;;;;;;5010526;28;20407;-88
2023/07/11 07:12:26;;;;;;;;;;;22.00;99.90;;;;;;5011141;28;19984;-88
2023/07/11 07:14:52;;;;;;;;;;;22.10;99.90;;;;;;4993151;28;20017;-88
2023/07/11 07:17:18;;;;;;;;;;;22.20;99.90;;;;;;5010437;28;19937;-89
2023/07/11 07:19:43;;;;;;;;;;;22.30;99.90;;;;;;5010182;28;20312;-88
2023/07/11 07:22:09;;;;;;;;;;;22.40;99.90;;;;;;5009645;28;19960;-88
2023/07/11 07:24:34;;;;;;;;;;;22.40;99.90;;;;;;5002824;28;19932;-88
2023/07/11 07:27:00;;;;;;;;;;;22.70;99.90;;;;;;4992410;28;19929;-88
2023/07/11 07:29:26;;;;;;;;;;;22.80;99.90;;;;;;5009177;28;19926;-88
2023/07/11 07:31:51;;;;;;;;;;;23.00;99.90;;;;;;4993773;28;19972;-88
2023/07/11 07:34:17;;;;;;;;;;;23.20;99.90;;;;;;4994156;28;19925;-87
2023/07/11 07:36:42;;;;;;;;;;;23.10;99.90;;;;;;4992596;28;20004;-88
2023/07/11 07:39:08;;;;;;;;;;;23.30;99.90;;;;;;5008506;28;19979;-87
2023/07/11 07:41:34;;;;;;;;;;;23.30;99.90;;;;;;4992007;28;19999;-87
2023/07/11 07:43:59;;;;;;;;;;;23.40;99.90;;;;;;4980894;28;20377;-88
2023/07/11 07:46:25;;;;;;;;;;;23.50;99.90;;;;;;5026320;28;19929;-87
2023/07/11 07:48:50;;;;;;;;;;;23.60;99.90;;;;;;5011235;28;20385;-87
2023/07/11 07:51:17;;;;;;;;;;;23.70;99.90;;;;;;5009636;28;19929;-90
2023/07/11 07:53:43;;;;;;;;;;;23.70;99.90;;;;;;4992299;28;20465;-87
2023/07/11 07:56:20;;;;;;;;;;;23.80;99.90;;;;;;5007290;28;20016;-88
2023/07/11 07:58:46;;;;;;;;;;;23.80;99.90;;;;;;5003130;28;19992;-88
2023/07/11 08:01:13;;;;;;;;;;;23.80;99.90;;;;;;4992715;28;19980;-87
2023/07/11 08:03:38;;;;;;;;;;;23.80;99.90;;;;;;4991542;28;19976;-87
2023/07/11 08:06:05;;;;;;;;;;;23.80;99.90;;;;;;4993120;28;19968;-87
2023/07/11 08:08:30;;;;;;;;;;;23.90;99.90;;;;;;5003262;28;19926;-88
2023/07/11 08:10:59;;;;;;;;;;;23.90;99.90;;;;;;4990829;28;19930;-88
2023/07/11 08:13:25;;;;;;;;;;;24.00;99.90;;;;;;5009594;28;20023;-89
2023/07/11 08:15:50;;;;;;;;;;;24.10;99.90;;;;;;4996450;28;19994;-87
2023/07/11 08:18:16;;;;;;;;;;;24.20;99.90;;;;;;4992680;28;19980;-88
2023/07/11 08:20:42;;;;;;;;;;;24.50;99.90;;;;;;5009608;28;19925;-87
2023/07/11 08:23:07;;;;;;;;;;;24.60;99.90;;;;;;4993714;28;20362;-87
2023/07/11 08:25:34;;;;;;;;;;;24.60;99.90;;;;;;4992206;28;20020;-87
2023/07/11 08:27:59;;;;;;;;;;;24.60;99.90;;;;;;4993267;28;20378;-86
2023/07/11 08:30:25;;;;;;;;;;;24.60;99.90;;;;;;5008907;28;19930;-87
2023/07/11 08:32:50;;;;;;;;;;;24.60;99.90;;;;;;4991718;28;19932;-91
2023/07/11 08:35:16;;;;;;;;;;;24.50;99.90;;;;;;5009082;28;19937;-86
2023/07/11 08:37:42;;;;;;;;;;;24.50;99.90;;;;;;4986224;28;19934;-88
2023/07/11 08:40:15;;;;;;;;;;;24.60;99.90;;;;;;5007176;28;19991;-87
2023/07/11 08:42:41;;;;;;;;;;;24.50;99.90;;;;;;4991681;28;20017;-87
2023/07/11 08:45:31;;;;;;;;;;;24.50;99.90;;;;;;4980348;28;19984;-87
2023/07/11 08:47:57;;;;;;;;;;;24.40;99.90;;;;;;4999772;28;19929;-88
2023/07/11 08:50:28;;;;;;;;;;;24.20;99.90;;;;;;5009440;28;19933;-87
2023/07/11 08:52:59;;;;;;;;;;;24.20;99.90;;;;;;5007661;28;19929;-88
2023/07/11 08:55:30;;;;;;;;;;;24.00;99.90;;;;;;5013337;28;19931;-88
2023/07/11 08:58:14;;;;;;;;;;;24.00;99.90;;;;;;5002573;28;20277;-87
2023/07/11 09:00:43;;;;;;;;;;;24.00;99.90;;;;;;5024729;28;20028;-87
2023/07/11 09:03:30;;;;;;;;;;;24.00;99.90;;;;;;5026415;28;19933;-87
2023/07/11 09:06:03;;;;;;;;;;;24.20;99.90;;;;;;5003051;28;19925;-86
2023/07/11 09:08:30;;;;;;;;;;;24.40;99.90;;;;;;5020652;28;20016;-88
2023/07/11 09:11:09;;;;;;;;;;;24.60;99.90;;;;;;5026218;28;20230;-88
2023/07/11 09:13:54;;;;;;;;;;;24.80;99.90;;;;;;5026245;28;19933;-87
2023/07/11 09:16:29;;;;;;;;;;;24.80;99.90;;;;;;5010037;28;20450;-87
2023/07/11 09:19:00;;;;;;;;;;;24.90;99.90;;;;;;5020087;28;19929;-86
2023/07/11 09:21:32;;;;;;;;;;;25.10;99.90;;;;;;5021372;28;19925;-87
2023/07/11 09:24:13;;;;;;;;;;;25.30;99.90;;;;;;5026896;28;20400;-87
2023/07/11 09:26:44;;;;;;;;;;;25.40;99.90;;;;;;5021676;28;19979;-86
2023/07/11 09:29:10;;;;;;;;;;;25.40;99.90;;;;;;4990442;28;19972;-88
2023/07/11 09:31:44;;;;;;;;;;;25.50;99.90;;;;;;5022083;28;20034;-87
2023/07/11 09:34:23;;;;;;;;;;;25.50;99.90;;;;;;4998216;28;19983;-87
2023/07/11 09:36:49;;;;;;;;;;;25.40;99.90;;;;;;4993760;28;19940;-87
2023/07/11 09:39:16;;;;;;;;;;;25.40;99.90;;;;;;5014384;28;19925;-88
2023/07/11 09:41:41;;;;;;;;;;;25.50;99.90;;;;;;5008082;28;20059;-87
2023/07/11 09:44:10;;;;;;;;;;;25.60;99.90;;;;;;4996496;28;20023;-87
2023/07/11 09:46:36;;;;;;;;;;;26.00;99.90;;;;;;5001998;28;20016;-87
2023/07/11 09:49:03;;;;;;;;;;;26.30;99.90;;;;;;5008361;28;20151;-87
2023/07/11 09:51:36;;;;;;;;;;;26.40;99.90;;;;;;5026213;28;19929;-87
2023/07/11 09:54:22;;;;;;;;;;;26.60;99.90;;;;;;5012736;28;19926;-86
2023/07/11 09:56:48;;;;;;;;;;;26.70;99.90;;;;;;5025606;28;20063;-88
2023/07/11 09:59:14;;;;;;;;;;;26.90;99.90;;;;;;5004833;28;19960;-88
2023/07/11 10:01:40;;;;;;;;;;;27.00;99.90;;;;;;4999453;28;19979;-88
2023/07/11 10:04:09;;;;;;;;;;;27.00;99.90;;;;;;5024085;28;20003;-88
2023/07/11 10:06:39;;;;;;;;;;;27.10;99.90;;;;;;5026460;28;20014;-87
2023/07/11 10:09:06;;;;;;;;;;;27.20;99.90;;;;;;5025493;28;20403;-86
2023/07/11 10:11:32;;;;;;;;;;;27.30;99.90;;;;;;5007481;28;19925;-87
2023/07/11 10:13:58;;;;;;;;;;;27.40;99.90;;;;;;5023454;28;19929;-88
2023/07/11 10:16:23;;;;;;;;;;;27.40;99.90;;;;;;5024993;28;19925;-87
2023/07/11 10:18:51;;;;;;;;;;;27.30;99.90;;;;;;4994385;28;20326;-86
2023/07/11 10:21:18;;;;;;;;;;;27.10;99.90;;;;;;5024769;28;20121;-87
2023/07/11 10:23:46;;;;;;;;;;;27.00;99.90;;;;;;5024174;28;19925;-87
2023/07/11 10:26:11;;;;;;;;;;;26.90;99.90;;;;;;5008704;28;20369;-86
2023/07/11 10:28:39;;;;;;;;;;;26.90;99.90;;;;;;5023045;28;20076;-86
2023/07/11 10:31:13;;;;;;;;;;;27.00;99.90;;;;;;5024161;28;19929;-86
2023/07/11 10:33:46;;;;;;;;;;;27.10;99.90;;;;;;5012286;28;20013;-86
2023/07/11 10:36:24;;;;;;;;;;;27.10;99.90;;;;;;5022978;28;19929;-87
2023/07/11 10:38:58;;;;;;;;;;;27.30;99.90;;;;;;5017253;28;19928;-87
2023/07/11 10:41:42;;;;;;;;;;;27.40;99.90;;;;;;5021242;28;19933;-87
2023/07/11 10:44:13;;;;;;;;;;;27.50;99.90;;;;;;5004658;28;19929;-88
2023/07/11 10:46:42;;;;;;;;;;;27.50;99.90;;;;;;4991357;28;19956;-86
2023/07/11 10:49:20;;;;;;;;;;;27.60;99.90;;;;;;5011242;28;20004;-87
2023/07/11 10:51:45;;;;;;;;;;;27.70;99.90;;;;;;5011033;28;19925;-86
2023/07/11 10:54:14;;;;;;;;;;;27.80;99.90;;;;;;5005844;28;20292;-87
2023/07/11 10:56:42;;;;;;;;;;;27.90;99.90;;;;;;5008186;28;19933;-87
2023/07/11 10:59:22;;;;;;;;;;;28.00;99.90;;;;;;4996011;28;19933;-86
2023/07/11 11:01:48;;;;;;;;;;;28.00;99.90;;;;;;5017086;28;19952;-86
2023/07/11 11:04:32;;;;;;;;;;;28.00;99.90;;;;;;5009609;28;20388;-87
2023/07/11 11:07:00;;;;;;;;;;;27.90;99.90;;;;;;5008555;28;20056;-87
2023/07/11 11:09:25;;;;;;;;;;;27.90;99.90;;;;;;5010364;28;19925;-87
2023/07/11 11:11:58;;;;;;;;;;;27.90;99.90;;;;;;4992284;28;20299;-87
2023/07/11 11:14:27;;;;;;;;;;;28.10;99.90;;;;;;4992760;28;19984;-86
2023/07/11 11:16:56;;;;;;;;;;;28.10;99.90;;;;;;4992449;28;19940;-87
2023/07/11 11:19:39;;;;;;;;;;;28.10;99.90;;;;;;5009958;28;20039;-87
2023/07/11 11:22:08;;;;;;;;;;;28.10;99.90;;;;;;5010926;28;20399;-86
2023/07/11 11:24:44;;;;;;;;;;;28.00;99.90;;;;;;5010319;28;20374;-86
2023/07/11 11:27:20;;;;;;;;;;;28.20;99.90;;;;;;4997585;28;19933;-86
2023/07/11 11:29:46;;;;;;;;;;;28.20;99.90;;;;;;4995228;28;19925;-87
2023/07/11 11:32:24;;;;;;;;;;;28.20;99.90;;;;;;4992756;28;20381;-86
2023/07/11 11:35:13;;;;;;;;;;;28.30;99.90;;;;;;4993422;28;19933;-87
2023/07/11 11:37:39;;;;;;;;;;;28.40;99.90;;;;;;5010690;28;19936;-87
2023/07/11 11:40:09;;;;;;;;;;;28.70;99.90;;;;;;4990488;28;19929;-86
2023/07/11 11:42:35;;;;;;;;;;;29.00;99.90;;;;;;5003844;28;19925;-86
2023/07/11 11:45:07;;;;;;;;;;;29.20;99.90;;;;;;4996695;28;19929;-87
2023/07/11 11:47:34;;;;;;;;;;;29.40;99.90;;;;;;5009912;28;19969;-88
2023/07/11 11:50:00;;;;;;;;;;;29.50;99.90;;;;;;5000176;28;19963;-87
2023/07/11 11:52:30;;;;;;;;;;;29.50;99.60;;;;;;5027418;28;19979;-87
2023/07/11 11:54:56;;;;;;;;;;;29.30;99.90;;;;;;5011785;28;19933;-87
2023/07/11 11:57:21;;;;;;;;;;;29.10;99.60;;;;;;4995075;28;19925;-87
2023/07/11 11:59:47;;;;;;;;;;;29.10;98.90;;;;;;5017466;28;19925;-87
2023/07/11 12:02:16;;;;;;;;;;;29.00;98.20;;;;;;4982520;28;19926;-87
2023/07/11 12:04:54;;;;;;;;;;;29.10;99.10;;;;;;4980993;28;19929;-87
2023/07/11 12:07:30;;;;;;;;;;;29.20;98.10;;;;;;4988511;28;20306;-87
2023/07/11 12:10:00;;;;;;;;;;;29.30;97.40;;;;;;5000033;28;19984;-86
2023/07/11 12:12:45;;;;;;;;;;;29.50;98.40;;;;;;5009928;28;19984;-87
2023/07/11 12:15:11;;;;;;;;;;;29.60;97.90;;;;;;5008398;28;20393;-87
2023/07/11 12:17:39;;;;;;;;;;;29.60;98.10;;;;;;5007523;28;19931;-87
2023/07/11 12:20:05;;;;;;;;;;;29.50;97.90;;;;;;5010475;28;19941;-86
2023/07/11 12:22:31;;;;;;;;;;;29.60;96.60;;;;;;5007859;28;19929;-86
2023/07/11 12:24:58;;;;;;;;;;;29.70;97.40;;;;;;4990937;28;19981;-87
2023/07/11 12:27:24;;;;;;;;;;;29.80;97.20;;;;;;4991223;28;19933;-87
2023/07/11 12:29:51;;;;;;;;;;;29.90;96.60;;;;;;5003853;28;19929;-87
2023/07/11 12:32:32;;;;;;;;;;;29.90;96.50;;;;;;5007187;28;19929;-87
2023/07/11 12:35:09;;;;;;;;;;;29.90;97.10;;;;;;5009765;28;19933;-86
2023/07/11 12:37:43;;;;;;;;;;;29.70;95.00;;;;;;5008487;28;19933;-87
2023/07/11 12:40:17;;;;;;;;;;;29.50;96.40;;;;;;5005140;28;20447;-87
2023/07/11 12:42:45;;;;;;;;;;;29.40;97.00;;;;;;5023045;28;19969;-86
2023/07/11 12:45:14;;;;;;;;;;;29.40;96.50;;;;;;4996017;28;19931;-87
2023/07/11 12:47:41;;;;;;;;;;;29.40;96.10;;;;;;5007756;28;20486;-86
2023/07/11 12:50:15;;;;;;;;;;;29.20;96.00;;;;;;4992300;28;19980;-86
2023/07/11 12:52:40;;;;;;;;;;;29.10;96.00;;;;;;5007184;28;20389;-87
2023/07/11 12:55:10;;;;;;;;;;;29.00;96.60;;;;;;5008659;28;20204;-87
2023/07/11 12:57:42;;;;;;;;;;;28.90;97.00;;;;;;4991641;28;19925;-87
2023/07/11 13:00:16;;;;;;;;;;;29.00;97.60;;;;;;5006782;28;19926;-87
2023/07/11 13:02:42;;;;;;;;;;;29.00;97.30;;;;;;5007927;28;19968;-87
2023/07/11 13:05:12;;;;;;;;;;;28.90;97.10;;;;;;5008102;28;19967;-86
2023/07/11 13:07:40;;;;;;;;;;;28.80;97.00;;;;;;5006830;28;19965;-86
2023/07/11 13:10:16;;;;;;;;;;;28.70;97.00;;;;;;5009356;28;20483;-86
2023/07/11 13:12:42;;;;;;;;;;;28.60;97.70;;;;;;4979641;28;19932;-87
2023/07/11 13:15:19;;;;;;;;;;;28.80;97.60;;;;;;5008984;28;19929;-86
2023/07/11 13:17:47;;;;;;;;;;;28.90;97.50;;;;;;4991559;28;20381;-86
2023/07/11 13:20:17;;;;;;;;;;;29.00;97.50;;;;;;4992878;28;20618;-86
2023/07/11 13:22:43;;;;;;;;;;;28.80;97.30;;;;;;4991260;28;19937;-86
2023/07/11 13:25:13;;;;;;;;;;;28.80;97.50;;;;;;5009344;28;19929;-86
2023/07/11 13:27:40;;;;;;;;;;;28.80;98.00;;;;;;5006735;28;20806;-87
2023/07/11 13:30:16;;;;;;;;;;;29.00;97.80;;;;;;4991752;28;19961;-87
2023/07/11 13:32:42;;;;;;;;;;;29.10;97.80;;;;;;4992065;28;19926;-86
2023/07/11 13:35:15;;;;;;;;;;;29.10;96.80;;;;;;4992618;28;19929;-87
2023/07/11 13:37:44;;;;;;;;;;;28.90;97.00;;;;;;5010850;28;19933;-87
2023/07/11 13:40:28;;;;;;;;;;;28.80;97.50;;;;;;4980307;28;20285;-86
2023/07/11 13:42:54;;;;;;;;;;;28.70;97.60;;;;;;4992724;28;19929;-87
2023/07/11 13:45:19;;;;;;;;;;;28.80;97.60;;;;;;4989737;28;19936;-87
2023/07/11 13:47:47;;;;;;;;;;;28.80;97.80;;;;;;5010441;28;20512;-87
2023/07/11 13:50:16;;;;;;;;;;;28.80;97.80;;;;;;5010310;28;20360;-87
2023/07/11 13:52:48;;;;;;;;;;;28.70;97.60;;;;;;5012115;28;20293;-87
2023/07/11 13:55:16;;;;;;;;;;;28.70;97.70;;;;;;5008906;28;20012;-86
2023/07/11 13:57:42;;;;;;;;;;;28.50;97.40;;;;;;5008725;28;20356;-87
2023/07/11 14:00:09;;;;;;;;;;;28.40;98.00;;;;;;5026458;28;20026;-86
2023/07/11 14:02:36;;;;;;;;;;;28.50;98.10;;;;;;5024875;28;20369;-86
2023/07/11 14:05:03;;;;;;;;;;;28.50;97.30;;;;;;5009959;28;19936;-86
2023/07/11 14:07:28;;;;;;;;;;;28.50;97.70;;;;;;5008649;28;19937;-87
2023/07/11 14:09:54;;;;;;;;;;;28.40;97.50;;;;;;5009006;28;20032;-86
2023/07/11 14:12:20;;;;;;;;;;;28.40;97.30;;;;;;5024698;28;19933;-87
2023/07/11 14:14:45;;;;;;;;;;;28.40;97.80;;;;;;5009551;28;19984;-87
2023/07/11 14:17:15;;;;;;;;;;;28.50;98.10;;;;;;5026065;28;19929;-86
2023/07/11 14:19:41;;;;;;;;;;;28.50;97.40;;;;;;5012999;28;19932;-86
2023/07/11 14:22:12;;;;;;;;;;;28.60;96.70;;;;;;5029436;28;19929;-87
2023/07/11 14:24:40;;;;;;;;;;;28.50;97.00;;;;;;5011979;28;20286;-86
2023/07/11 14:27:10;;;;;;;;;;;28.40;96.80;;;;;;5029340;28;20377;-86
2023/07/11 14:29:36;;;;;;;;;;;28.30;97.10;;;;;;5017447;28;19929;-87